Latest Weather Observations for Cape Grim

IDT60801

Issued at 11:41 am EDT Tuesday 20 November 2018 (issued every 10 minutes, with the page automatically refreshed every 10 minutes)

About weather observations | Map of weather stations | Latest weather observations for TAS | Other Formats
Station Details ID: 091331 Name: CAPE GRIM Lat: -40.68 Lon: 144.69 Height: 86.0 m
Data from the previous 72 hours. | See also: Recent months at Cape Grim
Date/Time
EDT
Temp
°C
App
Temp
°C
Dew
Point
°C
Rel
Hum
%
Delta-T
°C
Wind Press
QNH
hPa
Press
MSL
hPa
Rain since
9am
mm
Dir  Spd
km/h
Gust
km/h
Spd
kts
Gust
kts
20/11:30am 15.6 8.3 15.4 99 0.1 E 48 61 26 33 1006.4 1006.3 0.4
20/11:28am 15.5 8.1 15.3 99 0.1 E 48 61 26 33 1006.4 1006.3 0.4
20/11:00am 15.7 8.4 15.5 99 0.1 E 48 61 26 33 1006.5 1006.4 0.4
20/10:30am 15.4 7.2 15.2 99 0.1 ENE 52 69 28 37 1006.8 1006.7 0.4
20/10:27am 15.4 7.6 15.2 99 0.1 ENE 50 69 27 37 1007.0 1006.9 0.4
20/10:00am 15.3 8.1 14.8 97 0.3 E 46 59 25 32 1007.6 1007.5 0.0
20/09:56am 15.5 8.8 15.0 97 0.3 E 44 59 24 32 1008.0 1007.9 0.0
20/09:31am 15.7 8.1 14.6 93 0.6 E 48 57 26 31 1008.0 1007.9 0.0
20/09:30am 15.7 8.1 14.6 93 0.6 E 48 57 26 31 1008.0 1007.9 0.0
20/09:00am 15.8 7.8 14.7 93 0.6 E 50 61 27 33 1007.6 1007.5 0.0
20/08:30am 15.6 6.8 14.5 93 0.6 E 54 65 29 35 1007.3 1007.2 0.0
20/08:00am 15.6 6.1 14.3 92 0.7 ENE 57 74 31 40 1007.1 1007.0 0.0
20/07:30am 15.4 5.1 14.1 92 0.7 E 61 76 33 41 1006.9 1006.8 0.0
20/07:00am 15.3 5.0 14.0 92 0.7 E 61 80 33 43 1006.5 1006.4 0.0
20/06:54am 15.2 4.9 13.9 92 0.7 E 61 80 33 43 1006.5 1006.4 0.0
20/06:30am 15.1 4.3 13.8 92 0.7 E 63 76 34 41 1006.4 1006.3 0.0
20/06:01am 15.1 4.3 13.8 92 0.7 E 63 83 34 45 1006.7 1006.6 0.0
20/06:00am 15.1 4.7 13.8 92 0.7 E 61 74 33 40 1006.8 1006.7 0.0
20/05:30am 15.1 3.9 13.6 91 0.8 ENE 65 78 35 42 1007.4 1007.3 0.0
20/05:24am 15.0 4.1 13.5 91 0.8 ENE 63 82 34 44 1007.3 1007.2 0.0
20/05:00am 15.0 3.8 13.5 91 0.8 E 65 82 35 44 1006.9 1006.8 0.0
20/04:58am 15.0 4.2 13.7 92 0.7 E 63 82 34 44 1007.0 1006.9 0.0
20/04:30am 15.0 3.8 13.5 91 0.8 E 65 82 35 44 1007.3 1007.2 0.0
20/04:25am 14.9 4.1 13.6 92 0.7 E 63 82 34 44 1007.5 1007.4 0.0
20/04:00am 14.9 3.7 13.6 92 0.7 E 65 80 35 43 1007.7 1007.6 0.0
20/03:30am 14.8 4.3 13.5 92 0.7 E 61 76 33 41 1008.1 1008.0 0.0
20/03:00am 14.9 4.1 13.6 92 0.7 E 63 80 34 43 1008.7 1008.6 0.0
20/02:35am 14.9 4.1 13.6 92 0.7 E 63 82 34 44 1008.9 1008.8 0.0
20/02:30am 14.9 3.6 13.4 91 0.8 E 65 82 35 44 1008.8 1008.7 0.0
20/02:00am 15.0 3.8 13.5 91 0.8 E 65 82 35 44 1009.3 1009.3 0.0
20/01:30am 15.0 4.9 13.5 91 0.8 ENE 59 78 32 42 1009.9 1009.9 0.0
20/01:01am 14.9 4.4 13.4 91 0.8 ENE 61 80 33 43 1010.2 1010.2 0.0
20/01:00am 14.9 4.4 13.4 91 0.8 ENE 61 76 33 41 1010.3 1010.3 0.0
20/12:36am 14.9 4.4 13.3 90 0.9 ENE 61 80 33 43 1010.9 1010.9 0.0
20/12:30am 15.0 4.9 13.4 90 0.9 ENE 59 76 32 41 1011.1 1011.1 0.0
20/12:00am 15.0 5.2 13.4 90 0.9 ENE 57 80 31 43 1011.3 1011.3 0.0
 
Date/Time
EDT
Temp
°C
App
Temp
°C
Dew
Point
°C
Rel
Hum
%
Delta-T
°C
Wind Press
QNH
hPa
Press
MSL
hPa
Rain since
9am
mm
Dir  Spd
km/h
Gust
km/h
Spd
kts
Gust
kts
19/11:47pm 15.0 5.4 13.2 89 1.0 ENE 56 76 30 41 1011.7 1011.7 0.0
19/11:34pm 15.1 5.3 13.3 89 1.0 ENE 57 70 31 38 1012.1 1012.1 0.0
19/11:30pm 15.0 4.8 13.2 89 1.0 ENE 59 72 32 39 1012.1 1012.1 0.0
19/11:07pm 15.0 5.4 13.2 89 1.0 ENE 56 74 30 40 1012.3 1012.3 0.0
19/11:00pm 15.1 5.5 13.3 89 1.0 ENE 56 69 30 37 1012.5 1012.5 0.0
19/10:30pm 15.0 5.4 13.2 89 1.0 ENE 56 69 30 37 1012.6 1012.6 0.0
19/10:00pm 15.1 5.5 13.3 89 1.0 ENE 56 70 30 38 1012.7 1012.7 0.0
19/09:30pm 15.0 5.4 13.2 89 1.0 ENE 56 67 30 36 1013.0 1013.0 0.0
19/09:00pm 14.9 5.0 13.1 89 1.0 ENE 57 69 31 37 1013.2 1013.2 0.0
19/08:30pm 15.0 5.1 13.0 88 1.1 ENE 57 72 31 39 1013.1 1013.1 0.0
19/08:00pm 15.2 5.3 13.1 87 1.2 ENE 57 70 31 38 1013.5 1013.5 0.0
19/07:39pm 15.2 5.3 13.1 87 1.2 ENE 57 76 31 41 1013.4 1013.4 0.0
19/07:30pm 15.3 5.4 13.0 86 1.3 ENE 57 72 31 39 1013.2 1013.2 0.0
19/07:10pm 15.4 6.0 12.7 84 1.5 ENE 54 72 29 39 1013.3 1013.3 0.0
19/07:00pm 15.6 6.3 12.9 84 1.5 ENE 54 67 29 36 1013.3 1013.3 0.0
19/06:30pm 15.8 5.8 12.7 82 1.7 ENE 57 69 31 37 1013.2 1013.2 0.0
19/06:13pm 16.3 6.3 12.7 79 2.0 E 57 72 31 39 1013.5 1013.5 0.0
19/06:00pm 16.2 5.8 12.6 79 2.0 ENE 59 76 32 41 1013.6 1013.6 0.0
19/05:54pm 16.2 6.2 12.6 79 2.0 ENE 57 76 31 41 1013.5 1013.5 0.0
19/05:30pm 16.6 6.3 12.8 78 2.1 ENE 59 74 32 40 1013.7 1013.7 0.0
19/05:19pm 17.2 7.0 13.1 77 2.3 E 59 78 32 42 1013.7 1013.7 0.0
19/05:00pm 17.5 7.4 13.4 77 2.3 E 59 72 32 39 1014.1 1014.1 0.0
19/04:30pm 17.5 7.4 13.6 78 2.2 E 59 72 32 39 1014.4 1014.4 0.0
19/04:00pm 18.2 9.0 13.5 74 2.7 ENE 54 67 29 36 1014.8 1014.8 0.0
19/03:30pm 18.0 7.3 12.7 71 3.0 ENE 61 72 33 39 1014.9 1014.9 0.0
19/03:07pm 17.8 7.1 12.7 72 2.9 ENE 61 83 33 45 1015.0 1015.0 0.0
19/03:00pm 18.2 7.9 12.9 71 3.0 E 59 74 32 40 1015.1 1015.1 0.0
19/02:35pm 18.5 8.1 12.5 68 3.4 ENE 59 78 32 42 1015.4 1015.4 0.0
19/02:30pm 18.5 8.2 12.9 70 3.2 ENE 59 70 32 38 1015.4 1015.4 0.0
19/02:15pm 18.5 7.5 12.0 66 3.6 ENE 61 80 33 43 1015.3 1015.3 0.0
19/02:00pm 18.3 7.1 12.3 68 3.3 ENE 63 80 34 43 1015.4 1015.4 0.0
19/01:43pm 19.2 9.3 12.9 67 3.6 ENE 57 76 31 41 1015.7 1015.7 0.0
19/01:30pm 19.1 8.5 13.1 68 3.4 ENE 61 78 33 42 1015.9 1015.9 0.0
19/01:17pm 18.5 7.8 12.9 70 3.2 ENE 61 80 33 43 1016.2 1016.2 0.0
19/01:00pm 18.5 8.2 12.9 70 3.2 ENE 59 76 32 41 1016.3 1016.3 0.0
19/12:46pm 18.7 8.5 13.1 70 3.2 ENE 59 78 32 42 1016.5 1016.5 0.0
19/12:30pm 17.6 7.3 12.9 74 2.6 ENE 59 74 32 40 1016.9 1016.9 0.0
19/12:11pm 18.4 8.9 13.5 73 2.8 ENE 56 70 30 38 1017.2 1017.2 0.0
19/12:00pm 18.3 9.0 13.2 72 2.9 ENE 54 72 29 39 1017.4 1017.4 0.0
19/11:30am 18.0 8.3 13.5 75 2.6 ENE 57 78 31 42 1017.6 1017.6 0.0
19/11:28am 17.2 7.2 12.7 75 2.5 ENE 57 78 31 42 1017.6 1017.6 0.0
19/11:08am 17.2 6.8 12.5 74 2.6 ENE 59 76 32 41 1017.6 1017.6 0.0
19/11:07am 17.7 7.4 12.8 73 2.7 ENE 59 76 32 41 1017.8 1017.7 0.0
19/11:00am 17.3 6.5 12.6 74 2.6 ENE 61 76 33 41 1017.8 1017.7 0.0
19/10:54am 17.6 7.3 12.9 74 2.6 ENE 59 72 32 39 1017.8 1017.7 0.0
19/10:46am 17.3 7.4 13.0 76 2.4 ENE 57 70 31 38 1018.1 1018.0 0.0
19/10:30am 17.1 6.4 12.8 76 2.4 ENE 61 74 33 40 1017.9 1017.8 0.0
19/10:00am 16.5 6.6 13.0 80 2.0 ENE 57 70 31 38 1018.4 1018.3 0.0
19/09:30am 16.0 5.8 13.1 83 1.6 ENE 59 74 32 40 1018.4 1018.3 0.0
19/09:00am 16.0 6.2 13.3 84 1.5 ENE 57 69 31 37 1018.5 1018.4 0.0
19/08:30am 15.1 5.9 13.5 90 0.9 ENE 54 67 29 36 1018.5 1018.4 0.0
19/08:00am 14.6 5.4 13.5 93 0.6 E 54 69 29 37 1018.4 1018.3 0.0
19/07:30am 14.4 5.7 13.6 95 0.4 ENE 52 63 28 34 1018.4 1018.3 0.0
19/07:00am 14.3 5.8 13.3 94 0.6 ENE 50 61 27 33 1018.1 1018.0 0.0
19/06:30am 14.1 6.4 13.3 95 0.4 ENE 46 61 25 33 1017.9 1017.8 0.0
19/06:00am 14.0 4.7 13.1 94 0.5 ENE 54 65 29 35 1017.9 1017.8 0.0
19/05:50am 13.9 4.2 13.0 94 0.5 ENE 56 67 30 36 1017.8 1017.7 0.0
19/05:30am 13.9 4.6 13.0 94 0.5 ENE 54 69 29 37 1017.6 1017.6 0.0
19/05:00am 13.8 4.9 13.0 95 0.4 ENE 52 63 28 34 1017.5 1017.5 0.0
19/04:30am 13.8 4.8 12.9 94 0.5 ENE 52 69 28 37 1017.5 1017.5 0.0
19/04:00am 13.8 4.8 12.9 94 0.5 ENE 52 63 28 34 1017.8 1017.7 0.0
19/03:30am 13.8 5.1 12.7 93 0.6 ENE 50 61 27 33 1018.1 1018.0 0.0
19/03:00am 13.9 5.2 12.6 92 0.7 ENE 50 59 27 32 1018.5 1018.4 0.0
19/02:30am 13.9 4.8 12.6 92 0.7 ENE 52 67 28 36 1018.7 1018.6 0.0
19/02:00am 13.9 5.2 12.6 92 0.7 ENE 50 61 27 33 1019.1 1019.1 0.0
19/01:30am 13.9 4.8 12.5 91 0.8 ENE 52 63 28 34 1019.2 1019.2 0.0
19/01:00am 14.1 5.3 12.3 89 1.0 ENE 50 63 27 34 1019.6 1019.6 0.0
19/12:30am 14.1 5.6 12.1 88 1.1 ENE 48 65 26 35 1020.0 1020.0 0.0
19/12:00am 13.9 5.9 12.5 91 0.8 ENE 46 54 25 29 1020.2 1020.2 0.0
 
Date/Time
EDT
Temp
°C
App
Temp
°C
Dew
Point
°C
Rel
Hum
%
Delta-T
°C
Wind Press
QNH
hPa
Press
MSL
hPa
Rain since
9am
mm
Dir  Spd
km/h
Gust
km/h
Spd
kts
Gust
kts
18/11:30pm 13.9 7.1 13.0 94 0.5 ENE 41 52 22 28 1020.7 1020.7 0.0
18/11:00pm 13.9 7.1 13.0 94 0.5 ENE 41 54 22 29 1020.8 1020.8 0.0
18/10:30pm 13.9 7.0 12.8 93 0.6 ENE 41 50 22 27 1020.7 1020.7 0.0
18/10:00pm 14.0 6.7 12.9 93 0.6 ENE 43 56 23 30 1020.7 1020.7 0.0
18/09:30pm 14.0 6.7 12.9 93 0.6 ENE 43 54 23 29 1020.6 1020.6 0.0
18/09:00pm 14.0 6.4 12.4 90 0.9 ENE 44 57 24 31 1020.5 1020.5 0.0
18/08:30pm 14.1 7.0 12.1 88 1.1 ENE 41 52 22 28 1020.7 1020.7 0.0
18/08:00pm 14.4 7.6 11.9 85 1.3 ENE 39 50 21 27 1020.8 1020.8 0.0
18/07:30pm 14.8 8.0 11.8 82 1.6 ENE 39 50 21 27 1020.9 1020.9 0.0
18/07:00pm 15.3 7.9 11.3 77 2.1 ENE 41 50 22 27 1020.7 1020.7 0.0
18/06:30pm 15.7 8.4 11.5 76 2.3 ENE 41 50 22 27 1020.9 1020.9 0.0
18/06:00pm 16.4 9.2 11.8 74 2.5 ENE 41 50 22 27 1020.9 1020.9 0.0
18/05:30pm 16.6 8.7 11.3 71 2.9 ENE 44 56 24 30 1020.9 1020.9 0.0
18/05:00pm 17.0 9.6 11.3 69 3.1 ENE 41 52 22 28 1021.1 1021.1 0.0
18/04:30pm 17.4 9.8 11.9 70 3.0 ENE 43 52 23 28 1021.1 1021.1 0.0
18/04:00pm 17.9 10.8 12.1 69 3.2 ENE 41 52 22 28 1021.7 1021.7 0.0
18/03:30pm 18.1 11.7 11.9 67 3.4 ENE 37 46 20 25 1022.1 1022.1 0.0
18/03:00pm 18.2 11.3 11.5 65 3.7 ENE 39 48 21 26 1022.3 1022.3 0.0
18/02:30pm 18.0 10.5 12.2 69 3.2 ENE 43 50 23 27 1022.5 1022.5 0.0
18/02:00pm 17.6 10.8 12.1 70 3.0 ENE 39 50 21 27 1023.0 1023.0 0.0
18/01:30pm 17.8 11.0 12.0 69 3.2 ENE 39 48 21 26 1023.4 1023.4 0.0
18/01:00pm 17.6 11.1 11.6 68 3.3 ENE 37 44 20 24 1023.8 1023.8 0.0
18/12:30pm 17.6 11.0 11.2 66 3.5 ENE 37 44 20 24 1023.9 1023.9 0.0
18/12:00pm 17.6 11.4 11.4 67 3.4 ENE 35 43 19 23 1023.9 1023.9 0.0
18/11:30am 17.5 11.3 11.5 68 3.3 ENE 35 43 19 23 1024.1 1024.1 0.0
18/11:00am 17.4 11.3 11.9 70 3.0 ENE 35 43 19 23 1024.2 1024.2 0.0
18/10:30am 16.9 11.3 10.3 65 3.5 NE 30 35 16 19 1024.2 1024.2 0.0
18/10:00am 17.0 11.9 10.6 66 3.4 ENE 28 33 15 18 1024.3 1024.3 0.0
18/09:30am 16.4 11.4 10.9 70 3.0 NE 28 33 15 18 1024.3 1024.3 0.0
18/09:00am 16.0 11.2 10.3 69 3.0 ENE 26 32 14 17 1024.2 1024.2 0.0
18/08:30am 14.8 11.3 10.8 77 2.1 ENE 20 28 11 15 1024.1 1024.1 0.0
18/08:00am 12.8 9.5 11.7 93 0.6 ENE 20 24 11 13 1023.9 1023.9 0.0
18/07:30am 10.8 6.3 10.2 96 0.3 E 24 28 13 15 1023.7 1023.7 0.0
18/07:00am 9.7 5.1 9.6 99 0.0 E 24 26 13 14 1023.5 1023.5 0.0
18/06:30am 8.9 3.7 8.8 99 0.0 E 26 28 14 15 1023.3 1023.3 0.0
18/06:00am 8.0 2.9 7.7 98 0.1 E 24 26 13 14 1023.1 1023.1 0.0
18/05:30am 8.1 2.5 7.2 94 0.4 E 26 28 14 15 1022.9 1022.9 0.0
18/05:00am 8.2 2.9 7.0 92 0.6 E 24 28 13 15 1022.7 1022.7 0.0
18/04:30am 8.4 3.5 6.9 90 0.7 ESE 22 26 12 14 1022.8 1022.8 0.0
18/04:00am 8.7 3.8 6.8 88 0.9 ESE 22 26 12 14 1022.8 1022.8 0.0
18/03:30am 9.0 5.0 6.8 86 1.0 SE 17 22 9 12 1022.9 1022.9 0.0
18/03:00am 9.9 5.9 6.8 81 1.5 S 17 20 9 11 1023.2 1023.2 0.0
18/02:30am 9.9 4.9 6.6 80 1.5 S 22 32 12 17 1023.2 1023.2 0.0
18/02:00am 10.0 5.7 7.1 82 1.4 S 19 26 10 14 1023.5 1023.5 0.0
18/01:30am 10.1 5.3 7.2 82 1.4 S 22 28 12 15 1023.8 1023.8 0.0
18/01:00am 10.3 5.9 7.5 83 1.3 S 20 30 11 16 1024.2 1024.2 0.0
18/12:30am 10.7 5.7 8.1 84 1.3 S 24 37 13 20 1024.4 1024.4 0.0
18/12:00am 10.8 4.1 8.2 84 1.3 SSW 33 43 18 23 1024.4 1024.4 0.0
 
Date/Time
EDT
Temp
°C
App
Temp
°C
Dew
Point
°C
Rel
Hum
%
Delta-T
°C
Wind Press
QNH
hPa
Press
MSL
hPa
Rain since
9am
mm
Dir  Spd
km/h
Gust
km/h
Spd
kts
Gust
kts
17/11:30pm 10.9 4.2 8.3 84 1.3 SSW 33 46 18 25 1024.5 1024.5 0.0
17/11:00pm 11.1 5.3 8.1 82 1.5 S 28 39 15 21 1024.6 1024.6 0.0
17/10:30pm 11.2 4.2 8.4 83 1.4 SSW 35 48 19 26 1024.8 1024.8 0.0
17/10:00pm 11.4 4.5 9.0 85 1.2 SSW 35 48 19 26 1025.0 1025.0 0.0
17/09:42pm 11.4 4.9 9.0 85 1.2 SSW 33 52 18 28 1025.0 1025.0 0.0
17/09:30pm 11.4 4.5 8.8 84 1.3 SSW 35 44 19 24 1024.8 1024.8 0.0
17/09:00pm 11.6 5.2 9.2 85 1.2 SSW 33 46 18 25 1024.8 1024.8 0.0
17/08:30pm 12.0 5.1 9.0 82 1.5 SSW 35 44 19 24 1024.6 1024.6 0.0
17/08:00pm 12.4 6.3 9.6 83 1.4 SSW 32 44 17 24 1024.7 1024.7 0.0
17/07:30pm 12.8 6.7 9.8 82 1.5 SSW 32 46 17 25 1024.7 1024.7 0.0
17/07:00pm 13.2 7.0 10.0 81 1.6 SSW 33 44 18 24 1024.6 1024.6 0.0
17/06:30pm 14.0 8.5 10.6 80 1.8 SSW 30 43 16 23 1024.5 1024.5 0.0
17/06:00pm 14.0 7.6 10.6 80 1.8 SW 35 48 19 26 1024.5 1024.5 0.0
17/05:30pm 14.4 7.9 10.4 77 2.1 SW 35 48 19 26 1024.5 1024.5 0.0
17/05:00pm 14.4 7.6 10.6 78 2.0 SW 37 48 20 26 1024.5 1024.5 0.0
17/04:30pm 14.5 7.6 10.3 76 2.2 SW 37 44 20 24 1024.6 1024.6 0.0
17/04:00pm 14.7 7.6 9.7 72 2.6 SW 37 44 20 24 1024.6 1024.6 0.0
17/03:30pm 14.5 7.4 9.7 73 2.5 SW 37 43 20 23 1024.7 1024.7 0.0
17/03:00pm 14.7 7.3 9.7 72 2.6 SW 39 44 21 24 1024.8 1024.8 0.0
17/02:30pm 14.8 8.1 9.6 71 2.7 SW 35 43 19 23 1024.8 1024.8 0.0
17/02:00pm 14.6 8.4 9.2 70 2.8 SW 32 39 17 21 1025.0 1025.0 0.0
17/01:30pm 15.1 9.0 9.7 70 2.8 SW 32 37 17 20 1025.1 1025.1 0.0
17/01:00pm 14.9 8.7 9.5 70 2.8 SW 32 37 17 20 1025.2 1025.2 0.0
17/12:30pm 14.6 9.2 9.6 72 2.6 SW 28 35 15 19 1025.4 1025.4 0.0
17/12:00pm 14.5 9.4 9.1 70 2.7 SW 26 35 14 19 1025.5 1025.5 0.0

Other Formats:

Comma delimited format used in spreadsheet applications
http://www.bom.gov.au/fwo/IDT60801/IDT60801.95954.axf

JavaScript Object Notation format (JSON) in row-major order
http://www.bom.gov.au/fwo/IDT60801/IDT60801.95954.json